createdAt,value
2023-01-28T00:01:37.777Z,-0.80
2023-01-28T00:04:04.669Z,-0.80
2023-01-28T00:06:31.415Z,-0.80
2023-01-28T00:08:58.109Z,-0.80
2023-01-28T00:11:24.899Z,-0.70
2023-01-28T00:13:52.763Z,-0.80
2023-01-28T00:16:19.664Z,-0.80
2023-01-28T00:18:46.675Z,-0.80
2023-01-28T00:21:15.646Z,-0.80
2023-01-28T00:23:43.585Z,-0.80
2023-01-28T00:26:13.633Z,-0.80
2023-01-28T00:28:41.451Z,-0.80
2023-01-28T00:31:17.478Z,-0.80
2023-01-28T00:33:45.420Z,-0.70
2023-01-28T00:36:13.202Z,-0.80
2023-01-28T00:38:40.441Z,-0.80
2023-01-28T00:41:15.036Z,-0.80
2023-01-28T00:43:42.303Z,-0.80
2023-01-28T00:46:11.250Z,-0.80
2023-01-28T00:48:40.049Z,-0.80
2023-01-28T00:51:08.401Z,-0.80
2023-01-28T00:53:36.247Z,-0.80
2023-01-28T00:56:04.145Z,-0.80
2023-01-28T00:58:31.322Z,-0.80
2023-01-28T01:01:06.420Z,-0.80
2023-01-28T01:03:33.308Z,-0.80
2023-01-28T01:06:00.131Z,-0.80
2023-01-28T01:08:34.996Z,-0.80
2023-01-28T01:11:03.190Z,-0.80
2023-01-28T01:13:30.660Z,-0.70
2023-01-28T01:16:07.585Z,-0.80
2023-01-28T01:18:35.316Z,-0.80
2023-01-28T01:21:02.743Z,-0.80
2023-01-28T01:23:31.420Z,-0.80
2023-01-28T01:25:58.990Z,-0.70
2023-01-28T01:28:25.837Z,-0.80
2023-01-28T01:31:01.098Z,-0.80
2023-01-28T01:33:29.836Z,-0.70
2023-01-28T01:35:57.633Z,-0.80
2023-01-28T01:38:24.465Z,-0.80
2023-01-28T01:40:51.661Z,-0.70
2023-01-28T01:43:22.988Z,-0.70
2023-01-28T01:45:59.390Z,-0.80
2023-01-28T01:48:33.854Z,-0.80
2023-01-28T01:51:13.241Z,-0.80
2023-01-28T01:53:43.989Z,-0.80
2023-01-28T01:56:16.975Z,-0.70
2023-01-28T01:58:47.802Z,-0.80
2023-01-28T02:01:14.848Z,-0.80
2023-01-28T02:03:48.779Z,-0.70
2023-01-28T02:06:15.783Z,-0.80
2023-01-28T02:08:44.173Z,-0.70
2023-01-28T02:11:12.018Z,-0.70
2023-01-28T02:13:45.028Z,-0.80
2023-01-28T02:16:12.782Z,-0.70
2023-01-28T02:18:39.846Z,-0.70
2023-01-28T02:21:38.931Z,-0.70
2023-01-28T02:24:24.859Z,-0.80
2023-01-28T02:27:15.062Z,-0.70
2023-01-28T02:29:50.339Z,-0.70
2023-01-28T02:32:23.913Z,-0.80
2023-01-28T02:34:59.586Z,-0.80
2023-01-28T02:37:34.828Z,-0.70
2023-01-28T02:40:09.998Z,-0.70
2023-01-28T02:42:39.275Z,-0.70
2023-01-28T02:45:22.977Z,-0.70
2023-01-28T02:47:58.877Z,-0.70
2023-01-28T02:50:47.049Z,-0.70
2023-01-28T02:53:44.116Z,-0.70
2023-01-28T02:56:22.160Z,-0.80
2023-01-28T02:58:51.593Z,-0.70
2023-01-28T03:01:36.752Z,-0.70
2023-01-28T03:04:07.680Z,-0.70
2023-01-28T03:06:40.649Z,-0.70
2023-01-28T03:09:22.753Z,-0.70
2023-01-28T03:12:21.796Z,-0.70
2023-01-28T03:15:24.198Z,-0.70
2023-01-28T03:18:34.037Z,-0.70
2023-01-28T03:22:01.145Z,-0.70
2023-01-28T03:24:49.282Z,-0.70
2023-01-28T03:27:41.001Z,-0.70
2023-01-28T03:30:32.641Z,-0.70
2023-01-28T03:33:18.974Z,-0.70
2023-01-28T03:36:06.045Z,-0.70
2023-01-28T03:38:42.022Z,-0.70
2023-01-28T03:41:11.419Z,-0.70
2023-01-28T03:43:38.306Z,-0.70
2023-01-28T03:46:06.462Z,-0.70
2023-01-28T03:48:33.653Z,-0.70
2023-01-28T03:51:00.424Z,-0.70
2023-01-28T03:53:28.427Z,-0.70
2023-01-28T03:55:58.875Z,-0.70
2023-01-28T03:58:27.168Z,-0.70
2023-01-28T04:00:54.535Z,-0.70
2023-01-28T04:03:22.035Z,-0.70
2023-01-28T04:06:01.122Z,-0.70
2023-01-28T04:08:28.297Z,-0.70
2023-01-28T04:10:55.639Z,-0.70
2023-01-28T04:13:22.887Z,-0.70
2023-01-28T04:15:50.207Z,-0.70
2023-01-28T04:18:16.893Z,-0.70
2023-01-28T04:20:43.568Z,-0.70
2023-01-28T04:23:11.283Z,-0.70
2023-01-28T04:25:38.022Z,-0.70
2023-01-28T04:28:05.015Z,-0.70
2023-01-28T04:30:31.828Z,-0.70
2023-01-28T04:32:58.592Z,-0.70
2023-01-28T04:35:25.301Z,-0.70
2023-01-28T04:37:51.984Z,-0.70
2023-01-28T04:40:18.779Z,-0.70
2023-01-28T04:42:54.126Z,-0.70
2023-01-28T04:45:21.102Z,-0.70
2023-01-28T04:47:48.231Z,-0.70
2023-01-28T04:50:15.577Z,-0.60
2023-01-28T04:52:42.491Z,-0.70
2023-01-28T04:55:10.574Z,-0.70
2023-01-28T04:57:37.408Z,-0.60
2023-01-28T05:00:05.622Z,-0.70
2023-01-28T05:02:32.363Z,-0.60
2023-01-28T05:04:59.325Z,-0.60
2023-01-28T05:07:26.072Z,-0.60
2023-01-28T05:09:52.815Z,-0.70
2023-01-28T05:12:20.862Z,-0.70
2023-01-28T05:14:47.547Z,-0.70
2023-01-28T05:17:14.278Z,-0.70
2023-01-28T05:19:41.070Z,-0.60
2023-01-28T05:22:07.725Z,-0.60
2023-01-28T05:24:34.511Z,-0.60
2023-01-28T05:27:01.265Z,-0.60
2023-01-28T05:29:28.016Z,-0.60
2023-01-28T05:31:54.690Z,-0.60
2023-01-28T05:34:21.434Z,-0.60
2023-01-28T05:36:48.117Z,-0.60
2023-01-28T05:39:15.092Z,-0.70
2023-01-28T05:41:41.804Z,-0.60
2023-01-28T05:44:08.540Z,-0.60
2023-01-28T05:46:35.300Z,-0.60
2023-01-28T05:49:02.120Z,-0.60
2023-01-28T05:51:28.823Z,-0.70
2023-01-28T05:53:55.589Z,-0.60
2023-01-28T05:56:22.333Z,-0.60
2023-01-28T05:58:48.975Z,-0.60
2023-01-28T06:01:15.748Z,-0.60
2023-01-28T06:03:42.689Z,-0.60
2023-01-28T06:06:09.407Z,-0.60
2023-01-28T06:08:37.350Z,-0.60
2023-01-28T06:11:04.144Z,-0.60
2023-01-28T06:13:30.883Z,-0.60
2023-01-28T06:15:57.589Z,-0.60
2023-01-28T06:18:24.405Z,-0.60
2023-01-28T06:20:51.466Z,-0.60
2023-01-28T06:23:18.440Z,-0.60
2023-01-28T06:25:45.137Z,-0.60
2023-01-28T06:28:12.005Z,-0.60
2023-01-28T06:30:38.778Z,-0.60
2023-01-28T06:33:06.554Z,-0.60
2023-01-28T06:35:33.265Z,-0.60
2023-01-28T06:37:59.904Z,-0.60
2023-01-28T06:40:26.701Z,-0.60
2023-01-28T06:42:53.416Z,-0.60
2023-01-28T06:45:20.146Z,-0.50
2023-01-28T06:47:46.849Z,-0.50
2023-01-28T06:50:14.049Z,-0.60
2023-01-28T06:52:41.771Z,-0.60
2023-01-28T06:55:09.315Z,-0.60
2023-01-28T06:57:41.421Z,-0.60
2023-01-28T07:00:11.337Z,-0.50
2023-01-28T07:02:38.231Z,-0.50
2023-01-28T07:05:06.315Z,-0.60
2023-01-28T07:07:33.365Z,-0.60
2023-01-28T07:10:00.156Z,-0.50
2023-01-28T07:12:26.852Z,-0.50
2023-01-28T07:14:53.591Z,-0.50
2023-01-28T07:17:20.470Z,-0.50
2023-01-28T07:19:47.173Z,-0.50
2023-01-28T07:22:13.911Z,-0.50
2023-01-28T07:24:40.642Z,-0.50
2023-01-28T07:27:07.335Z,-0.50
2023-01-28T07:29:34.160Z,-0.50
2023-01-28T07:32:01.005Z,-0.50
2023-01-28T07:34:27.935Z,-0.50
2023-01-28T07:36:57.370Z,-0.50
2023-01-28T07:39:24.393Z,-0.50
2023-01-28T07:41:51.080Z,-0.50
2023-01-28T07:44:17.842Z,-0.50
2023-01-28T07:46:44.572Z,-0.50
2023-01-28T07:49:11.293Z,-0.40
2023-01-28T07:51:38.144Z,-0.40
2023-01-28T07:54:04.993Z,-0.40
2023-01-28T07:56:32.066Z,-0.40
2023-01-28T07:58:58.788Z,-0.40
2023-01-28T08:01:26.174Z,-0.40
2023-01-28T08:03:53.100Z,-0.40
2023-01-28T08:06:19.770Z,-0.40
2023-01-28T08:08:47.798Z,-0.30
2023-01-28T08:11:14.529Z,-0.30
2023-01-28T08:13:41.248Z,-0.30
2023-01-28T08:16:08.244Z,-0.30
2023-01-28T08:18:34.996Z,-0.30
2023-01-28T08:21:01.940Z,-0.30
2023-01-28T08:23:29.164Z,-0.30
2023-01-28T08:25:58.891Z,-0.30
2023-01-28T08:28:25.653Z,-0.30
2023-01-28T08:30:52.951Z,-0.20
2023-01-28T08:33:20.340Z,-0.20
2023-01-28T08:35:47.343Z,-0.20
2023-01-28T08:38:17.920Z,-0.20
2023-01-28T08:40:44.762Z,-0.20
2023-01-28T08:43:11.669Z,-0.20
2023-01-28T08:45:40.361Z,-0.20
2023-01-28T08:48:11.083Z,-0.20
2023-01-28T08:50:39.539Z,-0.20
2023-01-28T08:53:11.133Z,-0.10
2023-01-28T08:55:38.210Z,-0.20
2023-01-28T08:58:06.800Z,-0.20
2023-01-28T09:00:34.757Z,-0.10
2023-01-28T09:03:03.912Z,-0.10
2023-01-28T09:05:34.040Z,-0.10
2023-01-28T09:08:06.071Z,-0.10
2023-01-28T09:10:33.174Z,-0.10
2023-01-28T09:13:04.363Z,-0.10
2023-01-28T09:15:31.187Z,0.00
2023-01-28T09:17:59.438Z,-0.10
2023-01-28T09:20:26.980Z,0.00
2023-01-28T09:22:54.339Z,0.00
2023-01-28T09:25:21.258Z,0.00
2023-01-28T09:27:48.013Z,0.00
2023-01-28T09:30:15.449Z,0.00
2023-01-28T09:32:42.298Z,0.10
2023-01-28T09:35:09.873Z,0.10
2023-01-28T09:37:36.721Z,0.10
2023-01-28T09:40:04.396Z,0.10
2023-01-28T09:42:42.517Z,0.10
2023-01-28T09:45:33.673Z,0.20
2023-01-28T09:48:03.627Z,0.20
2023-01-28T09:50:32.547Z,0.20
2023-01-28T09:53:06.982Z,0.20
2023-01-28T09:55:41.917Z,0.30
2023-01-28T09:58:15.554Z,0.20
2023-01-28T10:00:48.138Z,0.20
2023-01-28T10:03:44.766Z,0.30
2023-01-28T10:06:14.366Z,0.30
2023-01-28T10:09:10.265Z,0.30
2023-01-28T10:11:51.783Z,0.40
2023-01-28T10:14:33.391Z,0.40
2023-01-28T10:17:20.747Z,0.40
2023-01-28T10:19:53.518Z,0.40
2023-01-28T10:22:25.822Z,0.40
2023-01-28T10:24:58.389Z,0.40
2023-01-28T10:27:30.595Z,0.40
2023-01-28T10:30:00.319Z,0.50
2023-01-28T10:32:34.120Z,0.50
2023-01-28T10:35:03.850Z,0.50
2023-01-28T10:37:38.360Z,0.50
2023-01-28T10:40:05.764Z,0.50
2023-01-28T10:42:35.572Z,0.50
2023-01-28T10:45:22.091Z,0.50
2023-01-28T10:48:00.922Z,0.50
2023-01-28T10:50:30.185Z,0.50
2023-01-28T10:53:02.870Z,0.50
2023-01-28T10:55:47.344Z,0.50
2023-01-28T10:58:31.006Z,0.50
2023-01-28T11:01:01.285Z,0.50
2023-01-28T11:03:32.054Z,0.50
2023-01-28T11:05:59.589Z,0.60
2023-01-28T11:08:28.930Z,0.60
2023-01-28T11:10:57.206Z,0.60
2023-01-28T11:13:29.331Z,0.50
2023-01-28T11:16:03.301Z,0.50
2023-01-28T11:18:36.164Z,0.50
2023-01-28T11:21:15.092Z,0.50
2023-01-28T11:24:03.709Z,0.50
2023-01-28T11:26:45.442Z,0.60
2023-01-28T11:29:34.518Z,0.60
2023-01-28T11:32:01.619Z,0.60
2023-01-28T11:34:31.894Z,0.70
2023-01-28T11:37:16.103Z,0.70
2023-01-28T11:39:43.192Z,0.60
2023-01-28T11:42:20.860Z,0.60
2023-01-28T11:44:48.866Z,0.70
2023-01-28T11:47:30.826Z,0.70
2023-01-28T11:50:25.557Z,0.70
2023-01-28T11:53:18.543Z,0.70
2023-01-28T11:56:13.710Z,0.70
2023-01-28T11:59:19.925Z,0.60
2023-01-28T12:01:58.374Z,0.70
2023-01-28T12:04:30.816Z,0.60
2023-01-28T12:07:05.693Z,0.60
2023-01-28T12:09:50.397Z,0.60
2023-01-28T12:12:29.707Z,0.60
2023-01-28T12:15:30.402Z,0.60
2023-01-28T12:18:36.452Z,0.50
2023-01-28T12:21:10.825Z,0.60
2023-01-28T12:23:58.596Z,0.60
2023-01-28T12:26:52.751Z,0.50
2023-01-28T12:29:19.475Z,0.60
2023-01-28T12:32:00.881Z,0.60
2023-01-28T12:34:31.706Z,0.60
2023-01-28T12:37:23.055Z,0.60
2023-01-28T12:40:40.203Z,0.60
2023-01-28T12:43:25.633Z,0.60
2023-01-28T12:45:57.397Z,0.60
2023-01-28T12:48:39.660Z,0.60
2023-01-28T12:51:31.342Z,0.70
2023-01-28T12:54:05.458Z,0.60
2023-01-28T12:56:43.395Z,0.60
2023-01-28T12:59:29.088Z,0.60
2023-01-28T13:01:58.774Z,0.70
2023-01-28T13:04:31.426Z,0.60
2023-01-28T13:07:29.341Z,0.60
2023-01-28T13:10:04.816Z,0.70
2023-01-28T13:12:33.407Z,0.70
2023-01-28T13:15:01.010Z,0.60
2023-01-28T13:17:30.894Z,0.60
2023-01-28T13:19:59.199Z,0.70
2023-01-28T13:22:29.869Z,0.70
2023-01-28T13:24:56.735Z,0.60
2023-01-28T13:27:28.981Z,0.60
2023-01-28T13:30:06.778Z,0.70
2023-01-28T13:32:36.255Z,0.60
2023-01-28T13:35:07.964Z,0.60
2023-01-28T13:37:45.329Z,0.60
2023-01-28T13:40:15.164Z,0.60
2023-01-28T13:42:42.246Z,0.60
2023-01-28T13:45:18.152Z,0.60
2023-01-28T13:47:51.754Z,0.60
2023-01-28T13:50:32.360Z,0.60
2023-01-28T13:53:05.871Z,0.60
2023-01-28T13:55:44.877Z,0.60
2023-01-28T13:58:45.294Z,0.60
2023-01-28T14:01:34.134Z,0.60
2023-01-28T14:04:43.344Z,0.70
2023-01-28T14:07:24.885Z,0.70
2023-01-28T14:10:09.924Z,0.80
2023-01-28T14:13:05.972Z,0.70
2023-01-28T14:15:40.457Z,0.80
2023-01-28T14:18:26.217Z,0.70
2023-01-28T14:20:55.845Z,0.80
2023-01-28T14:23:26.699Z,0.80
2023-01-28T14:26:18.150Z,0.90
2023-01-28T14:29:12.971Z,0.80
2023-01-28T14:31:40.322Z,0.70
2023-01-28T14:34:25.166Z,0.70
2023-01-28T14:36:56.155Z,0.80
2023-01-28T14:39:32.301Z,0.80
2023-01-28T14:42:02.486Z,0.80
2023-01-28T14:44:33.730Z,0.80
2023-01-28T14:47:20.432Z,0.70
2023-01-28T14:50:19.571Z,0.80
2023-01-28T14:53:07.091Z,0.70
2023-01-28T14:56:01.203Z,0.80
2023-01-28T14:58:37.134Z,0.70
2023-01-28T15:01:03.934Z,0.70
2023-01-28T15:03:31.381Z,0.70
2023-01-28T15:06:16.679Z,0.70
2023-01-28T15:08:43.513Z,0.60
2023-01-28T15:11:16.657Z,0.70
2023-01-28T15:13:49.159Z,0.70
2023-01-28T15:16:24.382Z,0.70
2023-01-28T15:18:51.842Z,0.60
2023-01-28T15:21:23.648Z,0.70
2023-01-28T15:23:53.626Z,0.60
2023-01-28T15:26:23.837Z,0.70
2023-01-28T15:28:51.459Z,0.60
2023-01-28T15:31:31.092Z,0.60
2023-01-28T15:34:04.944Z,0.60
2023-01-28T15:36:32.309Z,0.60
2023-01-28T15:38:59.150Z,0.70
2023-01-28T15:41:49.211Z,0.60
2023-01-28T15:44:36.760Z,0.60
2023-01-28T15:47:13.990Z,0.60
2023-01-28T15:49:45.951Z,0.60
2023-01-28T15:52:13.213Z,0.60
2023-01-28T15:54:47.265Z,0.60
2023-01-28T15:57:32.734Z,0.50
2023-01-28T16:00:18.567Z,0.50
2023-01-28T16:02:50.765Z,0.60
2023-01-28T16:05:28.203Z,0.50
2023-01-28T16:07:57.498Z,0.50
2023-01-28T16:10:28.402Z,0.60
2023-01-28T16:13:10.181Z,0.50
2023-01-28T16:15:39.252Z,0.50
2023-01-28T16:18:06.821Z,0.60
2023-01-28T16:20:33.890Z,0.50
2023-01-28T16:23:03.924Z,0.50
2023-01-28T16:25:39.860Z,0.50
2023-01-28T16:28:18.778Z,0.50
2023-01-28T16:30:45.626Z,0.50
2023-01-28T16:33:20.857Z,0.50
2023-01-28T16:36:05.500Z,0.50
2023-01-28T16:38:33.145Z,0.50
2023-01-28T16:40:59.918Z,0.50
2023-01-28T16:43:26.685Z,0.40
2023-01-28T16:45:53.455Z,0.50
2023-01-28T16:48:20.136Z,0.40
2023-01-28T16:50:47.054Z,0.50
2023-01-28T16:53:27.422Z,0.50
2023-01-28T16:55:55.046Z,0.40
2023-01-28T16:58:25.780Z,0.40
2023-01-28T17:00:53.215Z,0.40
2023-01-28T17:03:20.051Z,0.50
2023-01-28T17:05:47.010Z,0.50
2023-01-28T17:08:13.805Z,0.40
2023-01-28T17:10:53.225Z,0.40
2023-01-28T17:13:26.770Z,0.40
2023-01-28T17:16:00.903Z,0.40
2023-01-28T17:18:37.254Z,0.40
2023-01-28T17:21:13.622Z,0.40
2023-01-28T17:23:59.067Z,0.40
2023-01-28T17:26:30.572Z,0.40
2023-01-28T17:28:57.473Z,0.40
2023-01-28T17:31:26.356Z,0.40
2023-01-28T17:33:55.219Z,0.40
2023-01-28T17:36:23.152Z,0.40
2023-01-28T17:38:49.908Z,0.40
2023-01-28T17:41:17.569Z,0.40
2023-01-28T17:43:49.519Z,0.40
2023-01-28T17:46:17.278Z,0.40
2023-01-28T17:48:45.685Z,0.40
2023-01-28T17:51:13.747Z,0.40
2023-01-28T17:53:44.841Z,0.30
2023-01-28T17:56:19.750Z,0.30
2023-01-28T17:59:04.304Z,0.40
2023-01-28T18:01:31.660Z,0.40
2023-01-28T18:03:59.059Z,0.30
2023-01-28T18:06:29.477Z,0.40
2023-01-28T18:08:57.081Z,0.40
2023-01-28T18:11:23.778Z,0.40
2023-01-28T18:13:50.514Z,0.40
2023-01-28T18:16:20.608Z,0.40
2023-01-28T18:18:48.875Z,0.40
2023-01-28T18:21:51.354Z,0.40
2023-01-28T18:24:19.715Z,0.40
2023-01-28T18:26:46.955Z,0.40
2023-01-28T18:29:17.120Z,0.40
2023-01-28T18:31:44.229Z,0.40
2023-01-28T18:34:10.992Z,0.40
2023-01-28T18:36:37.689Z,0.40
2023-01-28T18:39:04.503Z,0.40
2023-01-28T18:41:31.298Z,0.40
2023-01-28T18:43:58.009Z,0.40
2023-01-28T18:46:24.820Z,0.40
2023-01-28T18:48:51.511Z,0.40
2023-01-28T18:51:29.364Z,0.40
2023-01-28T18:54:01.522Z,0.30
2023-01-28T18:56:29.331Z,0.40
2023-01-28T18:59:01.235Z,0.40
2023-01-28T19:01:29.163Z,0.30
2023-01-28T19:03:57.704Z,0.40
2023-01-28T19:06:25.649Z,0.30
2023-01-28T19:08:54.301Z,0.30
2023-01-28T19:11:22.046Z,0.30
2023-01-28T19:13:48.913Z,0.40
2023-01-28T19:16:15.993Z,0.30
2023-01-28T19:18:43.297Z,0.30
2023-01-28T19:21:09.989Z,0.30
2023-01-28T19:23:49.250Z,0.30
2023-01-28T19:26:21.130Z,0.30
2023-01-28T19:28:49.396Z,0.30
2023-01-28T19:31:18.917Z,0.30
2023-01-28T19:33:46.966Z,0.30
2023-01-28T19:36:14.845Z,0.20
2023-01-28T19:38:43.739Z,0.30
2023-01-28T19:41:13.614Z,0.30
2023-01-28T19:43:40.333Z,0.20
2023-01-28T19:46:07.078Z,0.30
2023-01-28T19:48:34.069Z,0.30
2023-01-28T19:51:08.325Z,0.20
2023-01-28T19:53:36.355Z,0.30
2023-01-28T19:56:06.359Z,0.20
2023-01-28T19:58:34.982Z,0.20
2023-01-28T20:01:10.204Z,0.20
2023-01-28T20:03:37.820Z,0.20
2023-01-28T20:06:06.587Z,0.30
2023-01-28T20:08:33.944Z,0.30
2023-01-28T20:11:12.864Z,0.30
2023-01-28T20:13:41.081Z,0.30
2023-01-28T20:16:09.973Z,0.20
2023-01-28T20:18:36.807Z,0.20
2023-01-28T20:21:05.323Z,0.20
2023-01-28T20:23:32.821Z,0.20
2023-01-28T20:26:01.059Z,0.20
2023-01-28T20:28:28.380Z,0.10
2023-01-28T20:30:56.685Z,0.20
2023-01-28T20:33:23.682Z,0.20
2023-01-28T20:35:50.475Z,0.20
2023-01-28T20:38:17.231Z,0.10
2023-01-28T20:40:44.080Z,0.10
2023-01-28T20:43:10.892Z,0.10
2023-01-28T20:45:38.382Z,0.10
2023-01-28T20:48:05.285Z,0.10
2023-01-28T20:50:32.091Z,0.10
2023-01-28T20:52:58.778Z,0.10
2023-01-28T20:55:25.463Z,0.10
2023-01-28T20:57:52.634Z,0.10
2023-01-28T21:00:20.271Z,0.10
2023-01-28T21:02:47.328Z,0.10
2023-01-28T21:05:14.098Z,0.10
2023-01-28T21:07:40.952Z,0.10
2023-01-28T21:10:08.363Z,0.10
2023-01-28T21:12:35.080Z,0.10
2023-01-28T21:15:01.789Z,0.00
2023-01-28T21:17:29.393Z,0.00
2023-01-28T21:19:56.089Z,0.00
2023-01-28T21:22:22.791Z,0.00
2023-01-28T21:24:51.197Z,0.00
2023-01-28T21:27:17.948Z,0.00
2023-01-28T21:29:44.727Z,0.00
2023-01-28T21:32:11.488Z,-0.10
2023-01-28T21:34:38.255Z,0.00
2023-01-28T21:37:04.982Z,0.00
2023-01-28T21:39:31.742Z,-0.10
2023-01-28T21:41:58.553Z,-0.10
2023-01-28T21:44:25.204Z,-0.10
2023-01-28T21:46:51.958Z,-0.10
2023-01-28T21:49:18.734Z,-0.10
2023-01-28T21:51:48.543Z,-0.10
2023-01-28T21:54:20.043Z,-0.10
2023-01-28T21:56:49.677Z,-0.10
2023-01-28T21:59:30.489Z,-0.10
2023-01-28T22:02:11.849Z,-0.10
2023-01-28T22:04:41.355Z,-0.10
2023-01-28T22:07:11.275Z,-0.10
2023-01-28T22:09:38.979Z,-0.10
2023-01-28T22:12:07.954Z,-0.10
2023-01-28T22:14:35.559Z,-0.10
2023-01-28T22:17:02.371Z,-0.20
2023-01-28T22:19:29.181Z,-0.10
2023-01-28T22:21:55.971Z,-0.10
2023-01-28T22:24:26.985Z,-0.20
2023-01-28T22:26:54.528Z,-0.20
2023-01-28T22:29:22.687Z,-0.20
2023-01-28T22:31:51.436Z,-0.20
2023-01-28T22:34:19.269Z,-0.20
2023-01-28T22:36:46.964Z,-0.20
2023-01-28T22:39:15.435Z,-0.20
2023-01-28T22:41:44.365Z,-0.30
2023-01-28T22:44:11.192Z,-0.30
2023-01-28T22:46:38.364Z,-0.30
2023-01-28T22:49:05.500Z,-0.30
2023-01-28T22:51:34.992Z,-0.30
2023-01-28T22:54:02.472Z,-0.30
2023-01-28T22:56:30.486Z,-0.30
2023-01-28T22:59:02.686Z,-0.30
2023-01-28T23:01:30.003Z,-0.30
2023-01-28T23:03:56.808Z,-0.30
2023-01-28T23:06:25.852Z,-0.30
2023-01-28T23:08:52.710Z,-0.30
2023-01-28T23:11:25.461Z,-0.40
2023-01-28T23:14:15.980Z,-0.20
2023-01-28T23:17:01.626Z,-0.30
2023-01-28T23:19:47.149Z,-0.30
2023-01-28T23:22:38.774Z,-0.30
2023-01-28T23:25:05.724Z,-0.30
2023-01-28T23:27:32.517Z,-0.30
2023-01-28T23:29:59.342Z,-0.30
2023-01-28T23:32:26.607Z,-0.30
2023-01-28T23:34:53.332Z,-0.30
2023-01-28T23:37:20.065Z,-0.30
2023-01-28T23:39:46.814Z,-0.40
2023-01-28T23:42:16.382Z,-0.40
2023-01-28T23:44:43.345Z,-0.40
2023-01-28T23:47:10.714Z,-0.40
2023-01-28T23:49:38.384Z,-0.30
2023-01-28T23:52:06.762Z,-0.30
2023-01-28T23:54:33.895Z,-0.40
2023-01-28T23:57:01.157Z,-0.40
2023-01-28T23:59:27.914Z,-0.40
